createdAt,value
2023-05-22T00:01:32.420Z,-23658.75
2023-05-22T00:03:36.531Z,-23660.94
2023-05-22T00:05:41.108Z,-23659.38
2023-05-22T00:07:43.929Z,-23661.09
2023-05-22T00:09:46.619Z,-23657.63
2023-05-22T00:11:50.756Z,-23655.91
2023-05-22T00:13:53.469Z,-23651.94
2023-05-22T00:15:56.454Z,-23649.75
2023-05-22T00:17:59.327Z,-23655.09
2023-05-22T00:20:08.507Z,-23654.78
2023-05-22T00:22:11.264Z,-23651.00
2023-05-22T00:24:13.953Z,-23647.53
2023-05-22T00:26:17.293Z,-23648.78
2023-05-22T00:28:21.689Z,-23649.13
2023-05-22T00:30:24.346Z,-23646.59
2023-05-22T00:32:27.134Z,-23647.22
2023-05-22T00:34:29.911Z,-23649.59
2023-05-22T00:36:32.783Z,-23652.25
2023-05-22T00:38:37.613Z,-23653.06
2023-05-22T00:40:40.468Z,-23649.25
2023-05-22T00:42:44.504Z,-23653.69
2023-05-22T00:44:49.818Z,-23653.22
2023-05-22T00:46:52.833Z,-23652.91
2023-05-22T00:48:55.653Z,-23651.63
2023-05-22T00:51:00.600Z,-23646.91
2023-05-22T00:53:03.667Z,-23647.53
2023-05-22T00:55:08.823Z,-23648.94
2023-05-22T00:57:11.904Z,-23650.38
2023-05-22T00:59:14.775Z,-23647.22
2023-05-22T01:01:18.991Z,-23647.53
2023-05-22T01:03:27.036Z,-23649.59
2023-05-22T01:05:30.099Z,-23645.97
2023-05-22T01:07:34.223Z,-23639.34
2023-05-22T01:09:36.870Z,-23643.28
2023-05-22T01:11:50.587Z,-23643.91
2023-05-22T01:14:01.887Z,-23636.81
2023-05-22T01:16:14.261Z,-23631.44
2023-05-22T01:18:29.352Z,-23634.59
2023-05-22T01:20:37.018Z,-23630.97
2023-05-22T01:23:14.101Z,-23632.06
2023-05-22T01:25:37.196Z,-23628.28
2023-05-22T01:28:03.960Z,-23624.97
2023-05-22T01:30:47.809Z,-23623.56
2023-05-22T01:32:51.218Z,-23629.72
2023-05-22T01:34:57.353Z,-23629.88
2023-05-22T01:37:01.268Z,-23631.44
2023-05-22T01:39:06.180Z,-23626.41
2023-05-22T01:41:08.948Z,-23625.59
2023-05-22T01:43:11.853Z,-23622.59
2023-05-22T01:45:15.605Z,-23623.22
2023-05-22T01:47:19.590Z,-23622.44
2023-05-22T01:49:22.541Z,-23619.13
2023-05-22T01:51:34.758Z,-23625.75
2023-05-22T01:53:42.954Z,-23624.66
2023-05-22T01:55:50.438Z,-23621.66
2023-05-22T01:57:59.178Z,-23621.03
2023-05-22T02:00:09.977Z,-23617.53
2023-05-22T02:02:14.499Z,-23618.34
2023-05-22T02:04:21.461Z,-23615.66
2023-05-22T02:06:26.743Z,-23617.22
2023-05-22T02:08:30.903Z,-23616.91
2023-05-22T02:10:35.055Z,-23621.66
2023-05-22T02:12:38.579Z,-23621.03
2023-05-22T02:14:43.324Z,-23621.03
2023-05-22T02:16:48.881Z,-23621.34
2023-05-22T02:18:54.106Z,-23622.91
2023-05-22T02:20:58.394Z,-23623.56
2023-05-22T02:23:01.194Z,-23626.72
2023-05-22T02:25:04.094Z,-23626.41
2023-05-22T02:27:07.254Z,-23617.88
2023-05-22T02:29:09.947Z,-23617.88
2023-05-22T02:31:12.663Z,-23620.25
2023-05-22T02:33:17.994Z,-23623.22
2023-05-22T02:35:20.686Z,-23625.28
2023-05-22T02:37:24.678Z,-23627.03
2023-05-22T02:39:27.457Z,-23627.50
2023-05-22T02:41:30.353Z,-23624.34
2023-05-22T02:43:33.015Z,-23626.41
2023-05-22T02:45:35.691Z,-23628.75
2023-05-22T02:47:38.392Z,-23629.56
2023-05-22T02:49:41.366Z,-23632.56
2023-05-22T02:51:47.895Z,-23635.88
2023-05-22T02:53:54.251Z,-23634.13
2023-05-22T02:55:58.786Z,-23636.81
2023-05-22T02:58:01.777Z,-23633.97
2023-05-22T03:00:06.853Z,-23634.44
2023-05-22T03:02:09.715Z,-23634.91
2023-05-22T03:04:13.976Z,-23633.97
2023-05-22T03:06:16.868Z,-23631.75
2023-05-22T03:08:19.636Z,-23630.66
2023-05-22T03:10:23.975Z,-23632.06
2023-05-22T03:12:26.627Z,-23633.34
2023-05-22T03:14:29.986Z,-23629.06
2023-05-22T03:16:34.443Z,-23632.69
2023-05-22T03:18:37.312Z,-23643.75
2023-05-22T03:20:40.185Z,-23641.06
2023-05-22T03:22:43.362Z,-23634.59
2023-05-22T03:24:46.119Z,-23630.34
2023-05-22T03:26:50.135Z,-23620.09
2023-05-22T03:28:52.997Z,-23620.72
2023-05-22T03:30:55.718Z,-23619.59
2023-05-22T03:32:58.514Z,-23623.06
2023-05-22T03:35:01.302Z,-23618.19
2023-05-22T03:37:04.064Z,-23609.19
2023-05-22T03:39:06.890Z,-23599.84
2023-05-22T03:41:09.647Z,-23604.44
2023-05-22T03:43:13.731Z,-23603.97
2023-05-22T03:45:16.840Z,-23603.03
2023-05-22T03:47:19.547Z,-23609.34
2023-05-22T03:49:22.350Z,-23611.53
2023-05-22T03:51:25.114Z,-23610.91
2023-05-22T03:53:27.814Z,-23611.06
2023-05-22T03:55:31.435Z,-23611.22
2023-05-22T03:57:34.157Z,-23612.19
2023-05-22T03:59:38.219Z,-23609.97
2023-05-22T04:01:41.187Z,-23612.34
2023-05-22T04:03:43.861Z,-23615.03
2023-05-22T04:05:46.642Z,-23620.72
2023-05-22T04:07:49.256Z,-23623.56
2023-05-22T04:09:51.999Z,-23617.53
2023-05-22T04:11:55.890Z,-23620.25
2023-05-22T04:14:03.885Z,-23620.09
2023-05-22T04:16:08.520Z,-23621.66
2023-05-22T04:18:11.901Z,-23622.28
2023-05-22T04:20:14.731Z,-23622.13
2023-05-22T04:22:17.498Z,-23621.66
2023-05-22T04:24:22.936Z,-23625.75
2023-05-22T04:26:26.137Z,-23638.06
2023-05-22T04:28:30.253Z,-23645.97
2023-05-22T04:30:34.527Z,-23642.97
2023-05-22T04:32:38.569Z,-23653.84
2023-05-22T04:34:42.179Z,-23654.78
2023-05-22T04:36:47.062Z,-23663.16
2023-05-22T04:38:50.374Z,-23681.75
2023-05-22T04:40:54.186Z,-23682.84
2023-05-22T04:45:37.454Z,-23708.06
2023-05-22T04:47:42.535Z,-23739.38
2023-05-22T04:49:46.272Z,-23720.50
2023-05-22T04:51:49.019Z,-23729.78
2023-05-22T04:53:51.957Z,-23748.16
2023-05-22T04:55:54.759Z,-23737.00
2023-05-22T04:57:57.412Z,-23734.31
2023-05-22T05:00:00.046Z,-23743.78
2023-05-22T05:02:02.821Z,-23727.56
2023-05-22T05:04:07.004Z,-23735.75
2023-05-22T05:06:09.807Z,-23748.00
2023-05-22T05:08:12.634Z,-23757.91
2023-05-22T05:10:15.355Z,-23749.75
2023-05-22T05:12:18.370Z,-23744.72
2023-05-22T05:14:21.060Z,-23745.03
2023-05-22T05:16:25.064Z,-23735.13
2023-05-22T05:18:28.315Z,-23768.75
2023-05-22T05:20:32.414Z,-23808.66
2023-05-22T05:22:35.847Z,-23801.28
2023-05-22T05:24:38.537Z,-23790.28
2023-05-22T05:26:41.287Z,-23784.47
2023-05-22T05:28:44.100Z,-23790.13
2023-05-22T05:30:46.751Z,-23757.75
2023-05-22T05:32:49.488Z,-23775.34
2023-05-22T05:34:52.431Z,-23781.34
2023-05-22T05:36:57.203Z,-23770.66
2023-05-22T05:39:00.525Z,-23759.81
2023-05-22T05:41:03.164Z,-23760.59
2023-05-22T05:43:08.546Z,-23773.00
2023-05-22T05:45:12.780Z,-23762.16
2023-05-22T05:47:15.571Z,-23770.00
2023-05-22T05:49:18.258Z,-23766.72
2023-05-22T05:51:22.094Z,-23783.53
2023-05-22T05:53:26.428Z,-23779.44
2023-05-22T05:55:29.112Z,-23776.94
2023-05-22T05:57:32.409Z,-23780.69
2023-05-22T05:59:35.239Z,-23806.28
2023-05-22T06:01:39.866Z,-23789.19
2023-05-22T06:03:42.688Z,-23783.69
2023-05-22T06:05:46.152Z,-23787.28
2023-05-22T06:07:49.689Z,-23789.03
2023-05-22T06:09:53.675Z,-23792.63
2023-05-22T06:11:56.462Z,-23789.50
2023-05-22T06:13:59.510Z,-23787.91
2023-05-22T06:16:04.240Z,-23797.66
2023-05-22T06:18:09.138Z,-23824.00
2023-05-22T06:20:14.226Z,-23804.09
2023-05-22T06:22:16.960Z,-23818.06
2023-05-22T06:24:19.643Z,-23801.41
2023-05-22T06:26:25.919Z,-23816.19
2023-05-22T06:28:28.466Z,-23824.31
2023-05-22T06:30:39.648Z,-23808.66
2023-05-22T06:32:43.445Z,-23819.31
2023-05-22T06:34:48.378Z,-23841.25
2023-05-22T06:36:51.498Z,-23792.16
2023-05-22T06:38:55.021Z,-23837.19
2023-05-22T06:40:57.659Z,-23807.38
2023-05-22T06:43:02.589Z,-23807.69
2023-05-22T06:45:06.313Z,-23828.09
2023-05-22T06:47:09.549Z,-23865.53
2023-05-22T06:49:12.851Z,-23823.22
2023-05-22T06:51:15.534Z,-23804.56
2023-05-22T06:53:18.157Z,-23837.81
2023-05-22T06:55:20.829Z,-23819.94
2023-05-22T06:57:24.091Z,-23876.03
2023-05-22T06:59:28.127Z,-23857.56
2023-05-22T07:01:31.499Z,-23845.97
2023-05-22T07:03:34.284Z,-23894.50
2023-05-22T07:05:37.047Z,-23851.91
2023-05-22T07:07:39.793Z,-23841.41
2023-05-22T07:09:42.524Z,-23822.59
2023-05-22T07:11:45.281Z,-23844.56
2023-05-22T07:13:47.915Z,-23881.66
2023-05-22T07:15:52.133Z,-23856.94
2023-05-22T07:17:54.865Z,-23872.13
2023-05-22T07:19:57.550Z,-23866.00
2023-05-22T07:22:00.264Z,-23864.28
2023-05-22T07:24:08.013Z,-23860.69
2023-05-22T07:26:10.759Z,-23896.53
2023-05-22T07:28:13.570Z,-23966.66
2023-05-22T07:30:16.418Z,-23935.91
2023-05-22T07:32:20.435Z,-23896.69
2023-05-22T07:34:23.276Z,-23912.47
2023-05-22T07:36:26.033Z,-23928.56
2023-05-22T07:38:28.689Z,-23930.59
2023-05-22T07:40:31.358Z,-23909.19
2023-05-22T07:42:34.438Z,-23907.00
2023-05-22T07:44:37.320Z,-23914.81
2023-05-22T07:46:40.085Z,-23908.88
2023-05-22T07:48:44.609Z,-23938.88
2023-05-22T07:50:47.731Z,-23907.94
2023-05-22T07:52:50.482Z,-23944.81
2023-05-22T07:54:53.170Z,-23884.47
2023-05-22T07:56:56.126Z,-23868.69
2023-05-22T07:58:58.992Z,-23887.63
2023-05-22T08:01:02.551Z,-23888.41
2023-05-22T08:03:05.620Z,-23874.31
2023-05-22T08:05:11.131Z,-23861.16
2023-05-22T08:07:13.935Z,-23856.16
2023-05-22T08:09:16.700Z,-23829.50
2023-05-22T08:11:19.591Z,-23842.34
2023-05-22T08:13:23.719Z,-23848.16
2023-05-22T08:15:26.514Z,-23865.69
2023-05-22T08:17:29.377Z,-23873.84
2023-05-22T08:19:32.444Z,-23883.84
2023-05-22T08:21:37.428Z,-23869.75
2023-05-22T08:23:40.266Z,-23872.28
2023-05-22T08:25:43.896Z,-23862.25
2023-05-22T08:27:46.554Z,-23850.97
2023-05-22T08:29:49.657Z,-23856.94
2023-05-22T08:31:54.121Z,-23878.22
2023-05-22T08:34:02.191Z,-23871.66
2023-05-22T08:36:05.379Z,-23846.13
2023-05-22T08:38:09.391Z,-23883.53
2023-05-22T08:40:13.475Z,-23869.13
2023-05-22T08:42:16.248Z,-23869.75
2023-05-22T08:44:19.821Z,-23883.06
2023-05-22T08:46:26.283Z,-23902.94
2023-05-22T08:48:32.368Z,-23872.13
2023-05-22T08:50:41.303Z,-23866.63
2023-05-22T08:52:49.126Z,-23867.59
2023-05-22T08:54:56.183Z,-23846.28
2023-05-22T08:56:59.387Z,-23850.66
2023-05-22T08:59:02.959Z,-23886.38
2023-05-22T09:01:06.595Z,-23902.78
2023-05-22T09:03:10.132Z,-23912.47
2023-05-22T09:05:13.382Z,-23928.56
2023-05-22T09:07:16.028Z,-23988.81
2023-05-22T09:09:18.803Z,-23975.41
2023-05-22T09:11:23.524Z,-23941.38
2023-05-22T09:13:28.136Z,-23950.75
2023-05-22T09:15:32.326Z,-23908.72
2023-05-22T09:17:35.047Z,-23926.38
2023-05-22T09:19:38.045Z,-23936.38
2023-05-22T09:21:40.783Z,-24031.50
2023-05-22T09:23:43.428Z,-24004.25
2023-05-22T09:25:46.538Z,-24020.59
2023-05-22T09:27:50.753Z,-24036.16
2023-05-22T09:29:56.737Z,-24077.34
2023-05-22T09:32:00.792Z,-24040.81
2023-05-22T09:34:03.558Z,-24051.72
2023-05-22T09:36:10.372Z,-24103.13
2023-05-22T09:38:13.708Z,-24050.47
2023-05-22T09:40:16.648Z,-24064.13
2023-05-22T09:42:19.447Z,-24003.16
2023-05-22T09:44:26.918Z,-24006.88
2023-05-22T09:46:30.081Z,-24001.44
2023-05-22T09:48:35.902Z,-24052.47
2023-05-22T09:50:40.140Z,-24030.56
2023-05-22T09:52:46.095Z,-23988.19
2023-05-22T09:54:54.868Z,-23990.84
2023-05-22T09:57:00.361Z,-24068.81
2023-05-22T09:59:03.336Z,-24047.19
2023-05-22T10:01:10.440Z,-24021.22
2023-05-22T10:03:15.314Z,-24008.59
2023-05-22T10:05:22.341Z,-23992.56
2023-05-22T10:07:27.969Z,-24074.56
2023-05-22T10:09:34.272Z,-24081.22
2023-05-22T10:11:38.058Z,-24122.34
2023-05-22T10:13:42.249Z,-24061.66
2023-05-22T10:15:45.289Z,-24009.38
2023-05-22T10:17:49.950Z,-24054.50
2023-05-22T10:19:53.897Z,-24059.00
2023-05-22T10:21:57.844Z,-24060.41
2023-05-22T10:24:02.103Z,-24007.66
2023-05-22T10:26:05.482Z,-24029.00
2023-05-22T10:28:09.847Z,-23997.06
2023-05-22T10:30:21.692Z,-24005.31
2023-05-22T10:32:28.489Z,-23965.09
2023-05-22T10:34:39.989Z,-24016.22
2023-05-22T10:37:00.431Z,-24033.19
2023-05-22T10:39:25.102Z,-24037.88
2023-05-22T10:41:27.906Z,-24037.09
2023-05-22T10:43:31.844Z,-24043.31
2023-05-22T10:45:34.607Z,-24029.78
2023-05-22T10:47:37.818Z,-23983.81
2023-05-22T10:49:45.223Z,-24003.63
2023-05-22T10:51:47.888Z,-24020.91
2023-05-22T10:53:54.184Z,-23993.34
2023-05-22T10:55:59.055Z,-23997.06
2023-05-22T10:58:14.068Z,-24001.59
2023-05-22T11:00:19.252Z,-23995.97
2023-05-22T11:02:23.207Z,-23986.16
2023-05-22T11:04:26.557Z,-24017.47
2023-05-22T11:06:42.417Z,-24010.47
2023-05-22T11:08:48.008Z,-24025.72
2023-05-22T11:10:54.970Z,-24006.72
2023-05-22T11:13:04.527Z,-23968.53
2023-05-22T11:15:08.921Z,-23984.13
2023-05-22T11:17:14.359Z,-23994.13
2023-05-22T11:21:23.326Z,-23972.44
2023-05-22T11:23:27.608Z,-23966.03
2023-05-22T11:25:30.826Z,-23988.66
2023-05-22T11:27:33.621Z,-23991.94
2023-05-22T11:29:37.436Z,-23983.19
2023-05-22T11:31:40.684Z,-24006.41
2023-05-22T11:33:43.578Z,-23987.09
2023-05-22T11:35:49.174Z,-23992.88
2023-05-22T11:37:53.856Z,-23977.75
2023-05-22T11:39:59.085Z,-23996.59
2023-05-22T11:42:04.512Z,-23983.19
2023-05-22T11:44:09.156Z,-23979.78
2023-05-22T11:46:12.751Z,-24004.06
2023-05-22T11:48:15.909Z,-23993.50
2023-05-22T11:52:24.800Z,-23990.53
2023-05-22T11:54:27.474Z,-23999.72
2023-05-22T11:56:31.536Z,-24020.59
2023-05-22T11:58:34.567Z,-24020.59
2023-05-22T12:00:37.577Z,-24003.31
2023-05-22T12:02:45.922Z,-23979.94
2023-05-22T12:04:48.610Z,-23999.88
2023-05-22T12:06:51.707Z,-24007.97
2023-05-22T12:08:54.931Z,-24022.75
2023-05-22T12:10:57.707Z,-24013.28
2023-05-22T12:13:01.879Z,-24006.25
2023-05-22T12:15:06.998Z,-24005.00
2023-05-22T12:17:12.817Z,-24005.31
2023-05-22T12:19:15.694Z,-24011.09
2023-05-22T12:21:19.977Z,-24003.47
2023-05-22T12:23:26.552Z,-23987.41
2023-05-22T12:25:36.515Z,-24021.22
2023-05-22T12:27:39.223Z,-24024.00
2023-05-22T12:29:44.288Z,-24018.56
2023-05-22T12:31:47.395Z,-24008.28
2023-05-22T12:33:50.146Z,-24001.59
2023-05-22T12:35:53.006Z,-23998.16
2023-05-22T12:37:55.816Z,-24005.78
2023-05-22T12:39:59.389Z,-24010.16
2023-05-22T12:42:02.154Z,-24025.72
2023-05-22T12:44:05.154Z,-24019.97
2023-05-22T12:46:09.233Z,-23988.19
2023-05-22T12:48:12.072Z,-23997.38
2023-05-22T12:50:14.984Z,-23993.50
2023-05-22T12:52:17.849Z,-23959.81
2023-05-22T12:54:20.553Z,-23965.09
2023-05-22T12:56:23.330Z,-23954.66
2023-05-22T12:58:26.084Z,-23969.78
2023-05-22T13:00:29.000Z,-23984.44
2023-05-22T13:02:33.153Z,-24002.53
2023-05-22T13:04:35.901Z,-24007.50
2023-05-22T13:06:38.644Z,-24003.31
2023-05-22T13:08:41.291Z,-23980.06
2023-05-22T13:10:44.056Z,-23998.78
2023-05-22T13:12:48.458Z,-24007.03
2023-05-22T13:14:51.196Z,-23995.66
2023-05-22T13:16:53.867Z,-24002.69
2023-05-22T13:18:57.908Z,-24020.75
2023-05-22T13:21:00.662Z,-24005.63
2023-05-22T13:23:03.372Z,-24011.56
2023-05-22T13:25:06.940Z,-24024.16
2023-05-22T13:27:09.607Z,-24021.53
2023-05-22T13:29:12.285Z,-23991.31
2023-05-22T13:31:15.141Z,-24002.69
2023-05-22T13:33:17.856Z,-23995.66
2023-05-22T13:35:22.160Z,-24015.59
2023-05-22T13:37:24.928Z,-24001.28
2023-05-22T13:39:27.720Z,-23987.72
2023-05-22T13:41:31.024Z,-23993.19
2023-05-22T13:43:33.794Z,-23973.69
2023-05-22T13:45:36.451Z,-24011.41
2023-05-22T13:47:39.264Z,-24016.06
2023-05-22T13:49:42.004Z,-24006.09
2023-05-22T13:51:46.187Z,-24009.69
2023-05-22T13:53:48.890Z,-23997.84
2023-05-22T13:55:51.737Z,-23995.66
2023-05-22T13:57:54.426Z,-24004.41
2023-05-22T13:59:57.100Z,-23971.81
2023-05-22T14:01:59.803Z,-23971.81
2023-05-22T14:04:02.500Z,-23987.88
2023-05-22T14:06:05.706Z,-23984.28
2023-05-22T14:08:09.748Z,-23971.97
2023-05-22T14:10:12.473Z,-23974.47
2023-05-22T14:12:15.191Z,-23972.91
2023-05-22T14:14:23.885Z,-23970.25
2023-05-22T14:16:26.729Z,-23967.59
2023-05-22T14:18:29.527Z,-23967.75
2023-05-22T14:20:32.210Z,-23962.94
2023-05-22T14:22:48.024Z,-23962.94
2023-05-22T14:24:58.992Z,-23959.50
2023-05-22T14:27:01.651Z,-23959.50
2023-05-22T14:29:04.331Z,-23962.59
2023-05-22T14:31:07.195Z,-23956.84
2023-05-22T14:33:09.932Z,-23953.25
2023-05-22T14:35:12.738Z,-23956.69
2023-05-22T14:37:15.498Z,-23947.00
2023-05-22T14:39:18.153Z,-23945.44
2023-05-22T14:41:22.285Z,-23948.88
2023-05-22T14:43:24.968Z,-23945.44
2023-05-22T14:45:27.637Z,-23944.03
2023-05-22T14:47:30.312Z,-23941.69
2023-05-22T14:49:33.208Z,-23929.81
2023-05-22T14:51:36.144Z,-23930.91
2023-05-22T14:53:38.854Z,-23929.34
2023-05-22T14:55:41.815Z,-23929.19
2023-05-22T14:57:46.124Z,-23923.25
2023-05-22T14:59:48.796Z,-23925.91
2023-05-22T15:01:52.359Z,-23926.53
2023-05-22T15:03:55.119Z,-23920.75
2023-05-22T15:05:57.935Z,-23912.78
2023-05-22T15:08:01.156Z,-23914.34
2023-05-22T15:10:04.039Z,-23905.44
2023-05-22T15:12:07.447Z,-23893.72
2023-05-22T15:14:11.488Z,-23885.91
2023-05-22T15:16:14.204Z,-23865.38
2023-05-22T15:18:17.073Z,-23854.09
2023-05-22T15:20:19.777Z,-23850.19
2023-05-22T15:22:22.419Z,-23840.63
2023-05-22T15:24:25.227Z,-23836.25
2023-05-22T15:26:27.899Z,-23832.31
2023-05-22T15:28:30.635Z,-23836.25
2023-05-22T15:30:36.435Z,-23829.97
2023-05-22T15:32:39.607Z,-23830.44
2023-05-22T15:34:42.285Z,-23825.28
2023-05-22T15:36:45.006Z,-23829.81
2023-05-22T15:38:47.755Z,-23826.69
2023-05-22T15:40:50.479Z,-23825.75
2023-05-22T15:42:53.511Z,-23832.16
2023-05-22T15:44:56.239Z,-23835.00
2023-05-22T15:47:00.356Z,-23828.41
2023-05-22T15:49:03.102Z,-23836.88
2023-05-22T15:51:09.573Z,-23837.19
2023-05-22T15:53:12.273Z,-23846.91
2023-05-22T15:55:15.096Z,-23849.56
2023-05-22T15:57:17.842Z,-23850.34
2023-05-22T15:59:20.535Z,-23840.00
2023-05-22T16:01:23.247Z,-23843.13
2023-05-22T16:03:27.434Z,-23852.84
2023-05-22T16:05:31.367Z,-23851.59
2023-05-22T16:07:34.055Z,-23858.97
2023-05-22T16:09:36.738Z,-23854.72
2023-05-22T16:11:39.478Z,-23860.22
2023-05-22T16:13:42.085Z,-23860.22
2023-05-22T16:15:45.131Z,-23862.25
2023-05-22T16:17:47.940Z,-23878.38
2023-05-22T16:19:52.004Z,-23880.56
2023-05-22T16:21:54.702Z,-23884.47
2023-05-22T16:23:57.538Z,-23874.78
2023-05-22T16:26:00.301Z,-23880.56
2023-05-22T16:28:03.046Z,-23881.19
2023-05-22T16:30:06.613Z,-23874.47
2023-05-22T16:32:09.295Z,-23873.69
2023-05-22T16:34:11.937Z,-23887.44
2023-05-22T16:36:15.981Z,-23882.91
2023-05-22T16:38:18.610Z,-23878.06
2023-05-22T16:42:25.308Z,-23882.59
2023-05-22T16:44:28.135Z,-23894.50
2023-05-22T16:46:30.948Z,-23887.44
2023-05-22T16:48:33.682Z,-23894.81
2023-05-22T16:50:36.398Z,-23893.56
2023-05-22T16:52:40.633Z,-23893.25
2023-05-22T16:54:43.290Z,-23880.41
2023-05-22T16:56:45.966Z,-23892.94
2023-05-22T16:58:48.644Z,-23886.69
2023-05-22T17:00:51.633Z,-23892.63
2023-05-22T17:02:55.799Z,-23899.19
2023-05-22T17:04:58.593Z,-23892.31
2023-05-22T17:07:01.321Z,-23886.69
2023-05-22T17:09:05.494Z,-23892.63
2023-05-22T17:11:08.232Z,-23889.03
2023-05-22T17:13:12.568Z,-23891.69
2023-05-22T17:15:15.568Z,-23898.88
2023-05-22T17:17:18.242Z,-23891.69
2023-05-22T17:19:21.463Z,-23895.59
2023-05-22T17:21:24.364Z,-23896.69
2023-05-22T17:23:27.191Z,-23894.50
2023-05-22T17:25:31.323Z,-23890.13
2023-05-22T17:27:36.573Z,-23888.88
2023-05-22T17:29:39.680Z,-23881.19
2023-05-22T17:31:42.424Z,-23876.66
2023-05-22T17:33:45.196Z,-23872.91
2023-05-22T17:35:47.892Z,-23877.91
2023-05-22T17:37:50.579Z,-23874.31
2023-05-22T17:39:53.336Z,-23878.06
2023-05-22T17:41:59.103Z,-23870.25
2023-05-22T17:44:02.939Z,-23866.00
2023-05-22T17:46:06.270Z,-23864.91
2023-05-22T17:48:08.990Z,-23865.69
2023-05-22T17:50:12.609Z,-23859.75
2023-05-22T17:52:15.345Z,-23850.97
2023-05-22T17:54:18.073Z,-23855.22
2023-05-22T17:56:20.787Z,-23859.44
2023-05-22T17:58:24.803Z,-23857.88
2023-05-22T18:00:27.499Z,-23857.88
2023-05-22T18:02:30.361Z,-23859.28
2023-05-22T18:04:33.135Z,-23860.38
2023-05-22T18:06:35.867Z,-23856.94
2023-05-22T18:08:39.959Z,-23856.63
2023-05-22T18:10:42.900Z,-23853.78
2023-05-22T18:12:45.796Z,-23852.22
2023-05-22T18:14:49.846Z,-23850.97
2023-05-22T18:16:52.529Z,-23852.06
2023-05-22T18:18:55.252Z,-23850.03
2023-05-22T18:20:59.428Z,-23847.22
2023-05-22T18:23:02.077Z,-23847.84
2023-05-22T18:25:05.057Z,-23837.34
2023-05-22T18:27:07.909Z,-23842.81
2023-05-22T18:29:11.077Z,-23840.00
2023-05-22T18:31:15.636Z,-23837.50
2023-05-22T18:33:18.359Z,-23832.81
2023-05-22T18:35:21.092Z,-23834.69
2023-05-22T18:37:23.764Z,-23828.09
2023-05-22T18:39:26.511Z,-23821.66
2023-05-22T18:41:29.178Z,-23824.16
2023-05-22T18:43:31.929Z,-23828.41
2023-05-22T18:45:34.625Z,-23815.22
2023-05-22T18:47:38.743Z,-23814.59
2023-05-22T18:49:41.469Z,-23807.69
2023-05-22T18:51:44.209Z,-23805.81
2023-05-22T18:53:47.054Z,-23803.31
2023-05-22T18:55:50.024Z,-23802.06
2023-05-22T18:57:52.677Z,-23804.25
2023-05-22T18:59:55.380Z,-23801.41
2023-05-22T19:01:58.030Z,-23797.81
2023-05-22T19:04:02.101Z,-23793.72
2023-05-22T19:06:05.513Z,-23792.94
2023-05-22T19:08:08.180Z,-23792.63
2023-05-22T19:10:11.406Z,-23795.16
2023-05-22T19:12:14.100Z,-23794.03
2023-05-22T19:14:16.834Z,-23797.34
2023-05-22T19:16:19.589Z,-23792.31
2023-05-22T19:18:22.327Z,-23791.06
2023-05-22T19:20:26.354Z,-23790.75
2023-05-22T19:22:29.081Z,-23791.84
2023-05-22T19:24:31.740Z,-23792.94
2023-05-22T19:26:34.512Z,-23786.97
2023-05-22T19:28:37.299Z,-23790.44
2023-05-22T19:30:40.275Z,-23787.28
2023-05-22T19:32:43.371Z,-23786.66
2023-05-22T19:34:46.449Z,-23788.72
2023-05-22T19:36:51.632Z,-23779.13
2023-05-22T19:38:54.259Z,-23781.81
2023-05-22T19:40:56.907Z,-23780.38
2023-05-22T19:42:59.714Z,-23777.25
2023-05-22T19:45:03.334Z,-23777.72
2023-05-22T19:47:06.444Z,-23769.88
2023-05-22T19:49:09.184Z,-23759.00
2023-05-22T19:51:11.892Z,-23751.63
2023-05-22T19:53:15.970Z,-23749.28
2023-05-22T19:55:18.766Z,-23748.78
2023-05-22T19:57:21.460Z,-23747.53
2023-05-22T19:59:24.082Z,-23748.66
2023-05-22T20:01:26.818Z,-23751.47
2023-05-22T20:03:29.762Z,-23754.94
2023-05-22T20:05:32.492Z,-23756.19
2023-05-22T20:07:35.188Z,-23754.00
2023-05-22T20:09:39.335Z,-23756.50
2023-05-22T20:11:42.188Z,-23753.03
2023-05-22T20:13:44.872Z,-23751.78
2023-05-22T20:15:48.187Z,-23756.50
2023-05-22T20:17:52.982Z,-23755.09
2023-05-22T20:19:55.717Z,-23755.56
2023-05-22T20:21:59.266Z,-23754.78
2023-05-22T20:24:04.866Z,-23755.41
2023-05-22T20:26:08.859Z,-23750.84
2023-05-22T20:28:11.689Z,-23748.47
2023-05-22T20:30:14.799Z,-23744.56
2023-05-22T20:32:17.719Z,-23748.16
2023-05-22T20:34:20.582Z,-23748.66
2023-05-22T20:36:24.693Z,-23748.31
2023-05-22T20:38:28.465Z,-23744.25
2023-05-22T20:40:32.679Z,-23748.66
2023-05-22T20:42:37.380Z,-23747.69
2023-05-22T20:44:41.282Z,-23747.69
2023-05-22T20:46:44.013Z,-23748.00
2023-05-22T20:48:48.188Z,-23747.84
2023-05-22T20:50:51.230Z,-23747.06
2023-05-22T20:52:54.102Z,-23748.31
2023-05-22T20:54:56.977Z,-23748.78
2023-05-22T20:56:59.727Z,-23748.16
2023-05-22T20:59:03.824Z,-23747.38
2023-05-22T21:01:06.935Z,-23745.81
2023-05-22T21:03:09.700Z,-23747.06
2023-05-22T21:05:13.376Z,-23744.56
2023-05-22T21:07:16.195Z,-23742.50
2023-05-22T21:09:18.981Z,-23742.66
2023-05-22T21:11:21.656Z,-23739.53
2023-05-22T21:13:24.489Z,-23739.69
2023-05-22T21:15:28.594Z,-23738.41
2023-05-22T21:17:31.266Z,-23738.56
2023-05-22T21:19:34.073Z,-23741.56
2023-05-22T21:21:41.508Z,-23738.56
2023-05-22T21:23:44.421Z,-23733.56
2023-05-22T21:25:47.124Z,-23734.50
2023-05-22T21:27:49.923Z,-23733.84
2023-05-22T21:29:52.562Z,-23732.28
2023-05-22T21:31:56.690Z,-23733.22
2023-05-22T21:33:59.423Z,-23735.28
2023-05-22T21:36:02.254Z,-23733.56
2023-05-22T21:38:04.957Z,-23731.81
2023-05-22T21:40:09.125Z,-23732.59
2023-05-22T21:42:11.847Z,-23729.13
2023-05-22T21:44:14.769Z,-23727.88
2023-05-22T21:46:17.666Z,-23729.94
2023-05-22T21:48:21.688Z,-23726.63
2023-05-22T21:50:24.399Z,-23726.31
2023-05-22T21:52:28.629Z,-23726.94
2023-05-22T21:54:31.822Z,-23729.31
2023-05-22T21:56:34.469Z,-23727.25
2023-05-22T21:58:37.166Z,-23725.06
2023-05-22T22:00:40.218Z,-23727.72
2023-05-22T22:02:43.229Z,-23728.50
2023-05-22T22:04:47.416Z,-23728.34
2023-05-22T22:06:50.143Z,-23733.38
2023-05-22T22:08:53.355Z,-23732.91
2023-05-22T22:10:56.406Z,-23733.56
2023-05-22T22:12:59.138Z,-23732.28
2023-05-22T22:15:02.281Z,-23733.84
2023-05-22T22:17:07.795Z,-23731.66
2023-05-22T22:19:11.524Z,-23730.09
2023-05-22T22:21:15.791Z,-23731.81
2023-05-22T22:23:18.433Z,-23734.19
2023-05-22T22:25:21.363Z,-23732.28
2023-05-22T22:27:25.044Z,-23731.03
2023-05-22T22:29:27.750Z,-23731.66
2023-05-22T22:31:30.484Z,-23729.13
2023-05-22T22:33:33.495Z,-23729.78
2023-05-22T22:35:36.247Z,-23728.81
2023-05-22T22:37:40.332Z,-23731.34
2023-05-22T22:39:43.001Z,-23728.81
2023-05-22T22:41:45.698Z,-23728.50
2023-05-22T22:43:48.442Z,-23728.66
2023-05-22T22:45:51.212Z,-23726.31
2023-05-22T22:47:56.499Z,-23725.06
2023-05-22T22:49:59.372Z,-23728.19
2023-05-22T22:52:02.030Z,-23724.09
2023-05-22T22:54:06.246Z,-23719.69
2023-05-22T22:56:09.153Z,-23720.50
2023-05-22T22:58:11.918Z,-23718.59
2023-05-22T23:00:16.137Z,-23722.69
2023-05-22T23:02:18.909Z,-23722.22
2023-05-22T23:04:21.729Z,-23721.91
2023-05-22T23:06:26.645Z,-23719.53
2023-05-22T23:08:29.270Z,-23722.38
2023-05-22T23:10:33.337Z,-23722.53
2023-05-22T23:12:36.216Z,-23722.53
2023-05-22T23:14:39.167Z,-23721.75
2023-05-22T23:16:41.859Z,-23727.25
2023-05-22T23:18:44.664Z,-23726.31
2023-05-22T23:20:47.380Z,-23724.09
2023-05-22T23:22:50.054Z,-23720.97
2023-05-22T23:24:52.820Z,-23722.06
2023-05-22T23:26:56.865Z,-23723.16
2023-05-22T23:28:59.924Z,-23722.22
2023-05-22T23:31:02.765Z,-23718.75
2023-05-22T23:33:06.087Z,-23720.97
2023-05-22T23:35:11.154Z,-23717.81
2023-05-22T23:37:14.018Z,-23717.81
2023-05-22T23:39:16.761Z,-23718.28
2023-05-22T23:41:19.556Z,-23714.97
2023-05-22T23:43:23.814Z,-23714.34